sensor_id;sensor_type;location;lat;lon;timestamp;P1;durP1;ratioP1;P2;durP2;ratioP2
50363;SDS011;36272;59.400;17.982;2022-08-21T00:02:28;6.63;;;2.05;;
50363;SDS011;36272;59.400;17.982;2022-08-21T00:07:30;8.48;;;1.83;;
50363;SDS011;36272;59.400;17.982;2022-08-21T00:12:33;11.95;;;2.00;;
50363;SDS011;36272;59.400;17.982;2022-08-21T00:17:34;10.40;;;2.10;;
50363;SDS011;36272;59.400;17.982;2022-08-21T00:22:36;8.82;;;2.17;;
50363;SDS011;36272;59.400;17.982;2022-08-21T00:27:38;6.32;;;2.00;;
50363;SDS011;36272;59.400;17.982;2022-08-21T00:32:43;9.95;;;2.15;;
50363;SDS011;36272;59.400;17.982;2022-08-21T00:37:45;11.52;;;2.05;;
50363;SDS011;36272;59.400;17.982;2022-08-21T00:42:46;9.98;;;2.35;;
50363;SDS011;36272;59.400;17.982;2022-08-21T00:47:49;11.00;;;2.05;;
50363;SDS011;36272;59.400;17.982;2022-08-21T00:52:51;14.52;;;2.78;;
50363;SDS011;36272;59.400;17.982;2022-08-21T00:57:54;8.25;;;2.05;;
50363;SDS011;36272;59.400;17.982;2022-08-21T01:02:59;9.43;;;2.00;;
50363;SDS011;36272;59.400;17.982;2022-08-21T01:08:03;10.05;;;2.05;;
50363;SDS011;36272;59.400;17.982;2022-08-21T01:13:06;10.13;;;2.15;;
50363;SDS011;36272;59.400;17.982;2022-08-21T01:18:10;9.30;;;2.08;;
50363;SDS011;36272;59.400;17.982;2022-08-21T01:23:13;11.15;;;2.55;;
50363;SDS011;36272;59.400;17.982;2022-08-21T01:28:15;10.23;;;2.10;;
50363;SDS011;36272;59.400;17.982;2022-08-21T01:33:20;9.80;;;2.78;;
50363;SDS011;36272;59.400;17.982;2022-08-21T01:38:25;6.45;;;2.40;;
50363;SDS011;36272;59.400;17.982;2022-08-21T01:43:27;6.55;;;2.42;;
50363;SDS011;36272;59.400;17.982;2022-08-21T01:48:28;8.73;;;2.78;;
50363;SDS011;36272;59.400;17.982;2022-08-21T01:53:30;14.27;;;3.90;;
50363;SDS011;36272;59.400;17.982;2022-08-21T01:58:32;12.15;;;3.25;;
50363;SDS011;36272;59.400;17.982;2022-08-21T02:03:34;9.45;;;2.75;;
50363;SDS011;36272;59.400;17.982;2022-08-21T02:08:37;11.27;;;3.13;;
50363;SDS011;36272;59.400;17.982;2022-08-21T02:13:39;10.18;;;2.42;;
50363;SDS011;36272;59.400;17.982;2022-08-21T02:18:41;11.77;;;2.58;;
50363;SDS011;36272;59.400;17.982;2022-08-21T02:23:43;12.05;;;2.85;;
50363;SDS011;36272;59.400;17.982;2022-08-21T02:28:45;13.63;;;2.78;;
50363;SDS011;36272;59.400;17.982;2022-08-21T02:33:47;12.68;;;3.13;;
50363;SDS011;36272;59.400;17.982;2022-08-21T02:38:49;12.05;;;2.85;;
50363;SDS011;36272;59.400;17.982;2022-08-21T02:43:50;9.93;;;2.78;;
50363;SDS011;36272;59.400;17.982;2022-08-21T02:48:52;13.30;;;3.08;;
50363;SDS011;36272;59.400;17.982;2022-08-21T02:53:54;11.95;;;3.03;;
50363;SDS011;36272;59.400;17.982;2022-08-21T02:58:55;11.73;;;2.63;;
50363;SDS011;36272;59.400;17.982;2022-08-21T03:03:57;9.70;;;2.63;;
50363;SDS011;36272;59.400;17.982;2022-08-21T03:08:59;8.57;;;2.70;;
50363;SDS011;36272;59.400;17.982;2022-08-21T03:14:01;10.95;;;3.38;;
50363;SDS011;36272;59.400;17.982;2022-08-21T03:19:02;12.52;;;3.40;;
50363;SDS011;36272;59.400;17.982;2022-08-21T03:24:05;12.02;;;2.80;;
50363;SDS011;36272;59.400;17.982;2022-08-21T03:29:08;9.60;;;3.00;;
50363;SDS011;36272;59.400;17.982;2022-08-21T03:34:09;14.80;;;3.30;;
50363;SDS011;36272;59.400;17.982;2022-08-21T03:39:11;13.60;;;3.17;;
50363;SDS011;36272;59.400;17.982;2022-08-21T03:44:13;13.95;;;3.60;;
50363;SDS011;36272;59.400;17.982;2022-08-21T03:49:14;12.48;;;3.05;;
50363;SDS011;36272;59.400;17.982;2022-08-21T03:54:16;12.63;;;2.88;;
50363;SDS011;36272;59.400;17.982;2022-08-21T03:59:18;10.10;;;3.58;;
50363;SDS011;36272;59.400;17.982;2022-08-21T04:04:20;12.45;;;2.90;;
50363;SDS011;36272;59.400;17.982;2022-08-21T04:09:22;18.45;;;3.00;;
50363;SDS011;36272;59.400;17.982;2022-08-21T04:14:25;14.48;;;2.78;;
50363;SDS011;36272;59.400;17.982;2022-08-21T04:19:26;11.23;;;2.67;;
50363;SDS011;36272;59.400;17.982;2022-08-21T04:24:28;16.27;;;2.90;;
50363;SDS011;36272;59.400;17.982;2022-08-21T04:29:30;10.90;;;3.50;;
50363;SDS011;36272;59.400;17.982;2022-08-21T04:34:31;14.00;;;3.70;;
50363;SDS011;36272;59.400;17.982;2022-08-21T04:39:33;12.85;;;3.00;;
50363;SDS011;36272;59.400;17.982;2022-08-21T04:44:34;10.35;;;2.85;;
50363;SDS011;36272;59.400;17.982;2022-08-21T04:49:37;12.25;;;2.70;;
50363;SDS011;36272;59.400;17.982;2022-08-21T04:54:39;15.15;;;3.42;;
50363;SDS011;36272;59.400;17.982;2022-08-21T04:59:44;11.98;;;3.70;;
50363;SDS011;36272;59.400;17.982;2022-08-21T05:04:50;14.70;;;3.10;;
50363;SDS011;36272;59.400;17.982;2022-08-21T05:09:55;16.73;;;3.15;;
50363;SDS011;36272;59.400;17.982;2022-08-21T05:14:57;14.52;;;3.30;;
50363;SDS011;36272;59.400;17.982;2022-08-21T05:19:58;13.95;;;3.42;;
50363;SDS011;36272;59.400;17.982;2022-08-21T05:25:00;20.73;;;4.30;;
50363;SDS011;36272;59.400;17.982;2022-08-21T05:30:02;20.38;;;4.22;;
50363;SDS011;36272;59.400;17.982;2022-08-21T05:35:05;13.85;;;3.25;;
50363;SDS011;36272;59.400;17.982;2022-08-21T05:40:08;11.45;;;2.90;;
50363;SDS011;36272;59.400;17.982;2022-08-21T05:45:10;18.52;;;3.08;;
50363;SDS011;36272;59.400;17.982;2022-08-21T05:50:12;11.70;;;3.22;;
50363;SDS011;36272;59.400;17.982;2022-08-21T05:55:14;22.75;;;2.90;;
50363;SDS011;36272;59.400;17.982;2022-08-21T06:00:15;8.95;;;2.80;;
50363;SDS011;36272;59.400;17.982;2022-08-21T06:05:17;12.90;;;2.88;;
50363;SDS011;36272;59.400;17.982;2022-08-21T06:10:20;15.55;;;3.53;;
50363;SDS011;36272;59.400;17.982;2022-08-21T06:15:21;14.60;;;3.28;;
50363;SDS011;36272;59.400;17.982;2022-08-21T06:20:23;17.38;;;3.33;;
50363;SDS011;36272;59.400;17.982;2022-08-21T06:25:25;14.63;;;3.03;;
50363;SDS011;36272;59.400;17.982;2022-08-21T06:30:27;12.68;;;3.00;;
50363;SDS011;36272;59.400;17.982;2022-08-21T06:35:28;14.02;;;3.20;;
50363;SDS011;36272;59.400;17.982;2022-08-21T06:40:30;17.58;;;3.47;;
50363;SDS011;36272;59.400;17.982;2022-08-21T06:45:33;15.02;;;3.47;;
50363;SDS011;36272;59.400;17.982;2022-08-21T06:50:34;12.48;;;3.38;;
50363;SDS011;36272;59.400;17.982;2022-08-21T06:55:37;11.95;;;3.17;;
50363;SDS011;36272;59.400;17.982;2022-08-21T07:00:40;12.57;;;3.22;;
50363;SDS011;36272;59.400;17.982;2022-08-21T07:05:44;9.33;;;2.57;;
50363;SDS011;36272;59.400;17.982;2022-08-21T07:10:48;14.52;;;3.50;;
50363;SDS011;36272;59.400;17.982;2022-08-21T07:15:50;10.60;;;2.83;;
50363;SDS011;36272;59.400;17.982;2022-08-21T07:20:52;12.32;;;2.45;;
50363;SDS011;36272;59.400;17.982;2022-08-21T07:25:53;14.48;;;3.38;;
50363;SDS011;36272;59.400;17.982;2022-08-21T07:30:56;13.10;;;3.08;;
50363;SDS011;36272;59.400;17.982;2022-08-21T07:36:00;15.10;;;2.80;;
50363;SDS011;36272;59.400;17.982;2022-08-21T07:41:03;10.23;;;2.65;;
50363;SDS011;36272;59.400;17.982;2022-08-21T07:46:18;13.43;;;3.40;;
50363;SDS011;36272;59.400;17.982;2022-08-21T07:51:22;8.27;;;2.50;;
50363;SDS011;36272;59.400;17.982;2022-08-21T07:56:27;14.38;;;3.00;;
50363;SDS011;36272;59.400;17.982;2022-08-21T08:01:31;13.13;;;2.95;;
50363;SDS011;36272;59.400;17.982;2022-08-21T08:06:33;13.30;;;2.67;;
50363;SDS011;36272;59.400;17.982;2022-08-21T08:11:35;14.50;;;2.92;;
50363;SDS011;36272;59.400;17.982;2022-08-21T08:16:39;9.33;;;2.33;;
50363;SDS011;36272;59.400;17.982;2022-08-21T08:21:41;8.50;;;2.22;;
50363;SDS011;36272;59.400;17.982;2022-08-21T08:26:43;18.85;;;2.95;;
50363;SDS011;36272;59.400;17.982;2022-08-21T08:31:44;9.55;;;2.30;;
50363;SDS011;36272;59.400;17.982;2022-08-21T08:36:46;12.02;;;2.67;;
50363;SDS011;36272;59.400;17.982;2022-08-21T08:41:48;12.70;;;3.00;;
50363;SDS011;36272;59.400;17.982;2022-08-21T08:46:52;10.90;;;2.33;;
50363;SDS011;36272;59.400;17.982;2022-08-21T08:52:02;8.38;;;2.40;;
50363;SDS011;36272;59.400;17.982;2022-08-21T08:57:09;16.45;;;2.33;;
50363;SDS011;36272;59.400;17.982;2022-08-21T09:02:15;12.38;;;2.60;;
50363;SDS011;36272;59.400;17.982;2022-08-21T09:18:27;11.00;;;2.35;;
50363;SDS011;36272;59.400;17.982;2022-08-21T09:24:01;10.60;;;2.55;;
50363;SDS011;36272;59.400;17.982;2022-08-21T09:29:14;7.82;;;2.40;;
50363;SDS011;36272;59.400;17.982;2022-08-21T09:34:25;8.55;;;2.05;;
50363;SDS011;36272;59.400;17.982;2022-08-21T09:39:31;12.60;;;2.53;;
50363;SDS011;36272;59.400;17.982;2022-08-21T09:44:39;11.43;;;2.40;;
50363;SDS011;36272;59.400;17.982;2022-08-21T09:49:44;8.27;;;2.05;;
50363;SDS011;36272;59.400;17.982;2022-08-21T09:54:46;8.43;;;2.13;;
50363;SDS011;36272;59.400;17.982;2022-08-21T09:59:50;8.30;;;1.90;;
50363;SDS011;36272;59.400;17.982;2022-08-21T10:04:53;7.00;;;2.00;;
50363;SDS011;36272;59.400;17.982;2022-08-21T10:10:05;5.38;;;2.10;;
50363;SDS011;36272;59.400;17.982;2022-08-21T10:42:38;9.68;;;2.05;;
50363;SDS011;36272;59.400;17.982;2022-08-21T10:48:06;5.47;;;1.80;;
50363;SDS011;36272;59.400;17.982;2022-08-21T10:53:19;8.93;;;1.92;;
50363;SDS011;36272;59.400;17.982;2022-08-21T10:58:40;7.35;;;1.83;;
50363;SDS011;36272;59.400;17.982;2022-08-21T11:04:21;5.03;;;1.55;;
50363;SDS011;36272;59.400;17.982;2022-08-21T11:09:30;10.23;;;2.33;;
50363;SDS011;36272;59.400;17.982;2022-08-21T11:14:47;5.13;;;1.75;;
50363;SDS011;36272;59.400;17.982;2022-08-21T11:20:02;8.13;;;1.83;;
50363;SDS011;36272;59.400;17.982;2022-08-21T11:25:21;5.85;;;2.00;;
50363;SDS011;36272;59.400;17.982;2022-08-21T11:30:43;7.38;;;1.83;;
50363;SDS011;36272;59.400;17.982;2022-08-21T11:36:08;7.03;;;2.30;;
50363;SDS011;36272;59.400;17.982;2022-08-21T11:41:31;8.15;;;1.80;;
50363;SDS011;36272;59.400;17.982;2022-08-21T11:57:05;7.90;;;2.03;;
50363;SDS011;36272;59.400;17.982;2022-08-21T12:02:33;8.45;;;2.05;;
50363;SDS011;36272;59.400;17.982;2022-08-21T12:07:40;3.88;;;1.45;;
50363;SDS011;36272;59.400;17.982;2022-08-21T12:12:45;6.10;;;1.75;;
50363;SDS011;36272;59.400;17.982;2022-08-21T12:18:00;7.13;;;1.83;;
50363;SDS011;36272;59.400;17.982;2022-08-21T12:28:13;6.30;;;1.65;;
50363;SDS011;36272;59.400;17.982;2022-08-21T12:33:38;7.13;;;1.70;;
50363;SDS011;36272;59.400;17.982;2022-08-21T12:44:04;3.30;;;1.15;;
50363;SDS011;36272;59.400;17.982;2022-08-21T12:49:45;3.15;;;1.30;;
50363;SDS011;36272;59.400;17.982;2022-08-21T12:54:44;3.22;;;1.00;;
50363;SDS011;36272;59.400;17.982;2022-08-21T12:59:45;6.30;;;1.05;;
50363;SDS011;36272;59.400;17.982;2022-08-21T13:04:52;1.13;;;0.82;;
50363;SDS011;36272;59.400;17.982;2022-08-21T13:09:58;2.97;;;1.02;;
50363;SDS011;36272;59.400;17.982;2022-08-21T13:15:05;4.55;;;1.00;;
50363;SDS011;36272;59.400;17.982;2022-08-21T13:20:09;2.65;;;1.10;;
50363;SDS011;36272;59.400;17.982;2022-08-21T13:25:21;2.88;;;1.30;;
50363;SDS011;36272;59.400;17.982;2022-08-21T13:30:27;3.00;;;0.95;;
50363;SDS011;36272;59.400;17.982;2022-08-21T13:35:30;3.33;;;0.98;;
50363;SDS011;36272;59.400;17.982;2022-08-21T13:40:45;5.57;;;1.48;;
50363;SDS011;36272;59.400;17.982;2022-08-21T13:45:52;3.90;;;1.00;;
50363;SDS011;36272;59.400;17.982;2022-08-21T13:50:55;3.53;;;1.33;;
50363;SDS011;36272;59.400;17.982;2022-08-21T13:55:58;3.85;;;0.90;;
50363;SDS011;36272;59.400;17.982;2022-08-21T14:01:01;2.97;;;1.20;;
50363;SDS011;36272;59.400;17.982;2022-08-21T14:06:10;4.80;;;1.02;;
50363;SDS011;36272;59.400;17.982;2022-08-21T14:11:17;2.47;;;1.08;;
50363;SDS011;36272;59.400;17.982;2022-08-21T14:16:21;5.22;;;1.38;;
50363;SDS011;36272;59.400;17.982;2022-08-21T14:22:00;4.10;;;1.33;;
50363;SDS011;36272;59.400;17.982;2022-08-21T14:27:03;2.95;;;1.02;;
50363;SDS011;36272;59.400;17.982;2022-08-21T14:32:13;4.05;;;1.00;;
50363;SDS011;36272;59.400;17.982;2022-08-21T14:37:20;3.35;;;1.15;;
50363;SDS011;36272;59.400;17.982;2022-08-21T14:42:23;2.85;;;1.20;;
50363;SDS011;36272;59.400;17.982;2022-08-21T14:47:25;2.35;;;0.88;;
50363;SDS011;36272;59.400;17.982;2022-08-21T14:52:27;3.25;;;1.00;;
50363;SDS011;36272;59.400;17.982;2022-08-21T14:57:29;3.05;;;0.68;;
50363;SDS011;36272;59.400;17.982;2022-08-21T15:02:32;4.40;;;1.20;;
50363;SDS011;36272;59.400;17.982;2022-08-21T15:07:33;3.72;;;1.08;;
50363;SDS011;36272;59.400;17.982;2022-08-21T15:12:35;3.42;;;1.33;;
50363;SDS011;36272;59.400;17.982;2022-08-21T15:17:37;2.35;;;0.95;;
50363;SDS011;36272;59.400;17.982;2022-08-21T15:22:39;2.70;;;0.73;;
50363;SDS011;36272;59.400;17.982;2022-08-21T15:27:40;2.13;;;1.00;;
50363;SDS011;36272;59.400;17.982;2022-08-21T15:32:42;2.38;;;0.90;;
50363;SDS011;36272;59.400;17.982;2022-08-21T15:37:44;3.13;;;0.68;;
50363;SDS011;36272;59.400;17.982;2022-08-21T15:42:45;2.97;;;1.20;;
50363;SDS011;36272;59.400;17.982;2022-08-21T15:47:49;3.53;;;1.10;;
50363;SDS011;36272;59.400;17.982;2022-08-21T15:52:51;3.00;;;1.00;;
50363;SDS011;36272;59.400;17.982;2022-08-21T15:57:53;3.17;;;1.00;;
50363;SDS011;36272;59.400;17.982;2022-08-21T16:02:55;3.03;;;0.80;;
50363;SDS011;36272;59.400;17.982;2022-08-21T16:13:02;3.15;;;1.00;;
50363;SDS011;36272;59.400;17.982;2022-08-21T16:18:05;3.25;;;1.23;;
50363;SDS011;36272;59.400;17.982;2022-08-21T16:23:07;4.13;;;1.67;;
50363;SDS011;36272;59.400;17.982;2022-08-21T16:28:10;4.60;;;1.23;;
50363;SDS011;36272;59.400;17.982;2022-08-21T16:33:58;4.60;;;1.27;;
50363;SDS011;36272;59.400;17.982;2022-08-21T16:38:46;5.85;;;1.50;;
50363;SDS011;36272;59.400;17.982;2022-08-21T16:43:49;4.03;;;1.30;;
50363;SDS011;36272;59.400;17.982;2022-08-21T16:48:51;3.63;;;1.30;;
50363;SDS011;36272;59.400;17.982;2022-08-21T16:53:53;3.10;;;1.25;;
50363;SDS011;36272;59.400;17.982;2022-08-21T16:58:55;3.65;;;1.27;;
50363;SDS011;36272;59.400;17.982;2022-08-21T17:03:58;4.45;;;1.40;;
50363;SDS011;36272;59.400;17.982;2022-08-21T17:09:00;2.03;;;1.20;;
50363;SDS011;36272;59.400;17.982;2022-08-21T17:14:03;4.00;;;1.40;;
50363;SDS011;36272;59.400;17.982;2022-08-21T17:19:08;7.63;;;1.60;;
50363;SDS011;36272;59.400;17.982;2022-08-21T17:24:10;5.60;;;2.15;;
50363;SDS011;36272;59.400;17.982;2022-08-21T17:29:15;5.22;;;1.60;;
50363;SDS011;36272;59.400;17.982;2022-08-21T17:39:22;2.88;;;1.45;;
50363;SDS011;36272;59.400;17.982;2022-08-21T17:44:24;3.00;;;1.38;;
50363;SDS011;36272;59.400;17.982;2022-08-21T17:49:26;15.77;;;2.00;;
50363;SDS011;36272;59.400;17.982;2022-08-21T17:54:27;6.80;;;1.70;;
50363;SDS011;36272;59.400;17.982;2022-08-21T17:59:29;5.30;;;2.30;;
50363;SDS011;36272;59.400;17.982;2022-08-21T18:04:31;10.85;;;2.97;;
50363;SDS011;36272;59.400;17.982;2022-08-21T18:09:32;6.45;;;2.30;;
50363;SDS011;36272;59.400;17.982;2022-08-21T18:14:34;4.55;;;2.10;;
50363;SDS011;36272;59.400;17.982;2022-08-21T18:19:37;6.82;;;2.55;;
50363;SDS011;36272;59.400;17.982;2022-08-21T18:24:39;7.05;;;2.65;;
50363;SDS011;36272;59.400;17.982;2022-08-21T18:29:41;7.20;;;2.10;;
50363;SDS011;36272;59.400;17.982;2022-08-21T18:34:43;5.38;;;2.10;;
50363;SDS011;36272;59.400;17.982;2022-08-21T18:39:50;7.93;;;2.40;;
50363;SDS011;36272;59.400;17.982;2022-08-21T18:44:52;8.00;;;2.40;;
50363;SDS011;36272;59.400;17.982;2022-08-21T18:49:59;8.80;;;2.30;;
50363;SDS011;36272;59.400;17.982;2022-08-21T18:55:01;5.78;;;2.22;;
50363;SDS011;36272;59.400;17.982;2022-08-21T19:00:13;5.13;;;2.38;;
50363;SDS011;36272;59.400;17.982;2022-08-21T19:10:20;4.47;;;2.13;;
50363;SDS011;36272;59.400;17.982;2022-08-21T19:15:23;7.95;;;2.42;;
50363;SDS011;36272;59.400;17.982;2022-08-21T19:20:26;5.85;;;1.92;;
50363;SDS011;36272;59.400;17.982;2022-08-21T19:25:31;6.43;;;2.30;;
50363;SDS011;36272;59.400;17.982;2022-08-21T19:30:33;6.82;;;1.95;;
50363;SDS011;36272;59.400;17.982;2022-08-21T19:35:36;6.35;;;2.25;;
50363;SDS011;36272;59.400;17.982;2022-08-21T19:40:38;7.88;;;2.20;;
50363;SDS011;36272;59.400;17.982;2022-08-21T19:45:40;3.97;;;2.05;;
50363;SDS011;36272;59.400;17.982;2022-08-21T19:50:42;6.63;;;1.98;;
50363;SDS011;36272;59.400;17.982;2022-08-21T19:55:44;7.05;;;1.95;;
50363;SDS011;36272;59.400;17.982;2022-08-21T20:00:47;5.05;;;1.80;;
50363;SDS011;36272;59.400;17.982;2022-08-21T20:05:48;4.35;;;2.13;;
50363;SDS011;36272;59.400;17.982;2022-08-21T20:10:50;8.40;;;2.10;;
50363;SDS011;36272;59.400;17.982;2022-08-21T20:15:55;7.30;;;2.27;;
50363;SDS011;36272;59.400;17.982;2022-08-21T20:20:56;6.40;;;2.10;;
50363;SDS011;36272;59.400;17.982;2022-08-21T20:25:58;6.93;;;2.40;;
50363;SDS011;36272;59.400;17.982;2022-08-21T20:31:00;5.47;;;2.03;;
50363;SDS011;36272;59.400;17.982;2022-08-21T20:36:03;10.60;;;2.28;;
50363;SDS011;36272;59.400;17.982;2022-08-21T20:41:05;4.80;;;2.00;;
50363;SDS011;36272;59.400;17.982;2022-08-21T20:46:07;7.75;;;2.20;;
50363;SDS011;36272;59.400;17.982;2022-08-21T20:51:31;7.20;;;2.00;;
50363;SDS011;36272;59.400;17.982;2022-08-21T20:56:45;4.53;;;1.92;;
50363;SDS011;36272;59.400;17.982;2022-08-21T21:01:51;4.55;;;1.95;;
50363;SDS011;36272;59.400;17.982;2022-08-21T21:06:55;8.50;;;2.20;;
50363;SDS011;36272;59.400;17.982;2022-08-21T21:11:58;7.70;;;2.30;;
50363;SDS011;36272;59.400;17.982;2022-08-21T21:17:04;5.30;;;2.10;;
50363;SDS011;36272;59.400;17.982;2022-08-21T21:22:20;5.50;;;2.22;;
50363;SDS011;36272;59.400;17.982;2022-08-21T21:27:28;8.57;;;2.60;;
50363;SDS011;36272;59.400;17.982;2022-08-21T21:32:35;10.98;;;2.75;;
50363;SDS011;36272;59.400;17.982;2022-08-21T21:37:42;6.00;;;2.20;;
50363;SDS011;36272;59.400;17.982;2022-08-21T21:53:53;4.05;;;2.17;;
50363;SDS011;36272;59.400;17.982;2022-08-21T22:04:22;5.50;;;2.08;;
50363;SDS011;36272;59.400;17.982;2022-08-21T22:09:45;6.77;;;2.37;;
50363;SDS011;36272;59.400;17.982;2022-08-21T22:14:59;7.05;;;2.33;;
50363;SDS011;36272;59.400;17.982;2022-08-21T22:20:05;5.20;;;2.28;;
50363;SDS011;36272;59.400;17.982;2022-08-21T22:25:16;7.78;;;2.30;;
50363;SDS011;36272;59.400;17.982;2022-08-21T22:30:41;7.45;;;2.22;;
50363;SDS011;36272;59.400;17.982;2022-08-21T22:35:46;9.45;;;2.20;;
50363;SDS011;36272;59.400;17.982;2022-08-21T22:40:49;7.50;;;2.10;;
50363;SDS011;36272;59.400;17.982;2022-08-21T22:51:30;7.35;;;2.22;;
50363;SDS011;36272;59.400;17.982;2022-08-21T22:56:40;8.02;;;2.00;;
50363;SDS011;36272;59.400;17.982;2022-08-21T23:01:45;6.18;;;1.90;;
50363;SDS011;36272;59.400;17.982;2022-08-21T23:06:58;9.95;;;2.58;;
50363;SDS011;36272;59.400;17.982;2022-08-21T23:12:05;8.67;;;2.00;;
50363;SDS011;36272;59.400;17.982;2022-08-21T23:17:37;7.65;;;2.25;;
50363;SDS011;36272;59.400;17.982;2022-08-21T23:44:31;7.38;;;2.65;;
50363;SDS011;36272;59.400;17.982;2022-08-21T23:50:04;9.18;;;2.70;;
